sensor_id;sensor_type;location;lat;lon;timestamp;P1;durP1;ratioP1;P2;durP2;ratioP2
5153;SDS011;2595;53.584;10.084;2022-12-18T00:01:26;10.83;;;9.73;;
5153;SDS011;2595;53.584;10.084;2022-12-18T00:03:54;12.17;;;9.57;;
5153;SDS011;2595;53.584;10.084;2022-12-18T00:06:20;19.83;;;11.37;;
5153;SDS011;2595;53.584;10.084;2022-12-18T00:08:47;16.10;;;10.53;;
5153;SDS011;2595;53.584;10.084;2022-12-18T00:11:14;10.93;;;10.13;;
5153;SDS011;2595;53.584;10.084;2022-12-18T00:13:41;10.80;;;9.60;;
5153;SDS011;2595;53.584;10.084;2022-12-18T00:16:11;16.97;;;11.00;;
5153;SDS011;2595;53.584;10.084;2022-12-18T00:18:40;13.57;;;11.40;;
5153;SDS011;2595;53.584;10.084;2022-12-18T00:21:06;15.43;;;11.43;;
5153;SDS011;2595;53.584;10.084;2022-12-18T00:23:34;12.70;;;9.67;;
5153;SDS011;2595;53.584;10.084;2022-12-18T00:26:00;11.47;;;9.30;;
5153;SDS011;2595;53.584;10.084;2022-12-18T00:28:27;11.00;;;9.97;;
5153;SDS011;2595;53.584;10.084;2022-12-18T00:31:00;12.97;;;10.50;;
5153;SDS011;2595;53.584;10.084;2022-12-18T00:33:27;11.90;;;10.70;;
5153;SDS011;2595;53.584;10.084;2022-12-18T00:35:53;12.57;;;11.37;;
5153;SDS011;2595;53.584;10.084;2022-12-18T00:38:18;10.47;;;9.10;;
5153;SDS011;2595;53.584;10.084;2022-12-18T00:40:44;11.00;;;10.00;;
5153;SDS011;2595;53.584;10.084;2022-12-18T00:43:09;10.00;;;8.70;;
5153;SDS011;2595;53.584;10.084;2022-12-18T00:45:35;12.67;;;9.40;;
5153;SDS011;2595;53.584;10.084;2022-12-18T00:48:01;10.77;;;9.90;;
5153;SDS011;2595;53.584;10.084;2022-12-18T00:50:26;12.07;;;10.87;;
5153;SDS011;2595;53.584;10.084;2022-12-18T00:52:52;10.93;;;9.80;;
5153;SDS011;2595;53.584;10.084;2022-12-18T00:55:18;10.53;;;9.47;;
5153;SDS011;2595;53.584;10.084;2022-12-18T00:57:43;9.30;;;8.50;;
5153;SDS011;2595;53.584;10.084;2022-12-18T01:00:11;10.67;;;9.70;;
5153;SDS011;2595;53.584;10.084;2022-12-18T01:02:38;16.93;;;9.20;;
5153;SDS011;2595;53.584;10.084;2022-12-18T01:05:04;8.63;;;7.77;;
5153;SDS011;2595;53.584;10.084;2022-12-18T01:07:30;11.50;;;9.70;;
5153;SDS011;2595;53.584;10.084;2022-12-18T01:09:56;9.60;;;8.53;;
5153;SDS011;2595;53.584;10.084;2022-12-18T01:12:21;10.13;;;9.17;;
5153;SDS011;2595;53.584;10.084;2022-12-18T01:14:47;13.37;;;10.37;;
5153;SDS011;2595;53.584;10.084;2022-12-18T01:17:13;9.60;;;8.73;;
5153;SDS011;2595;53.584;10.084;2022-12-18T01:19:39;12.90;;;9.67;;
5153;SDS011;2595;53.584;10.084;2022-12-18T01:22:05;10.67;;;9.40;;
5153;SDS011;2595;53.584;10.084;2022-12-18T01:24:30;11.00;;;10.00;;
5153;SDS011;2595;53.584;10.084;2022-12-18T01:26:56;8.87;;;7.90;;
5153;SDS011;2595;53.584;10.084;2022-12-18T01:29:22;13.47;;;9.80;;
5153;SDS011;2595;53.584;10.084;2022-12-18T01:31:48;9.27;;;8.53;;
5153;SDS011;2595;53.584;10.084;2022-12-18T01:34:14;13.07;;;8.97;;
5153;SDS011;2595;53.584;10.084;2022-12-18T01:36:39;11.03;;;10.00;;
5153;SDS011;2595;53.584;10.084;2022-12-18T01:39:06;11.60;;;8.30;;
5153;SDS011;2595;53.584;10.084;2022-12-18T01:41:35;11.37;;;9.90;;
5153;SDS011;2595;53.584;10.084;2022-12-18T01:50:06;9.97;;;8.50;;
5153;SDS011;2595;53.584;10.084;2022-12-18T01:52:32;9.37;;;8.30;;
5153;SDS011;2595;53.584;10.084;2022-12-18T01:54:59;9.73;;;8.73;;
5153;SDS011;2595;53.584;10.084;2022-12-18T01:57:26;10.47;;;8.43;;
5153;SDS011;2595;53.584;10.084;2022-12-18T01:59:53;9.53;;;8.73;;
5153;SDS011;2595;53.584;10.084;2022-12-18T02:02:23;8.93;;;8.00;;
5153;SDS011;2595;53.584;10.084;2022-12-18T02:04:51;8.27;;;7.60;;
5153;SDS011;2595;53.584;10.084;2022-12-18T02:10:14;13.37;;;9.10;;
5153;SDS011;2595;53.584;10.084;2022-12-18T02:15:42;10.07;;;7.67;;
5153;SDS011;2595;53.584;10.084;2022-12-18T02:18:18;8.53;;;7.73;;
5153;SDS011;2595;53.584;10.084;2022-12-18T02:20:55;8.60;;;7.80;;
5153;SDS011;2595;53.584;10.084;2022-12-18T02:26:19;10.53;;;8.27;;
5153;SDS011;2595;53.584;10.084;2022-12-18T02:28:52;12.50;;;8.43;;
5153;SDS011;2595;53.584;10.084;2022-12-18T02:31:22;8.80;;;8.10;;
5153;SDS011;2595;53.584;10.084;2022-12-18T02:33:51;8.47;;;7.90;;
5153;SDS011;2595;53.584;10.084;2022-12-18T02:36:24;8.97;;;8.07;;
5153;SDS011;2595;53.584;10.084;2022-12-18T02:38:52;8.50;;;7.73;;
5153;SDS011;2595;53.584;10.084;2022-12-18T02:41:23;9.57;;;8.43;;
5153;SDS011;2595;53.584;10.084;2022-12-18T02:43:52;10.27;;;7.80;;
5153;SDS011;2595;53.584;10.084;2022-12-18T02:46:32;8.43;;;7.70;;
5153;SDS011;2595;53.584;10.084;2022-12-18T02:51:53;8.83;;;7.70;;
5153;SDS011;2595;53.584;10.084;2022-12-18T02:57:13;12.40;;;8.37;;
5153;SDS011;2595;53.584;10.084;2022-12-18T03:00:01;9.40;;;7.73;;
5153;SDS011;2595;53.584;10.084;2022-12-18T03:02:44;10.43;;;7.20;;
5153;SDS011;2595;53.584;10.084;2022-12-18T03:05:31;7.57;;;7.00;;
5153;SDS011;2595;53.584;10.084;2022-12-18T03:08:03;7.87;;;7.27;;
5153;SDS011;2595;53.584;10.084;2022-12-18T03:10:42;7.40;;;6.90;;
5153;SDS011;2595;53.584;10.084;2022-12-18T03:13:13;7.80;;;7.30;;
5153;SDS011;2595;53.584;10.084;2022-12-18T03:15:46;8.13;;;7.43;;
5153;SDS011;2595;53.584;10.084;2022-12-18T03:18:20;8.13;;;6.80;;
5153;SDS011;2595;53.584;10.084;2022-12-18T03:20:48;9.23;;;8.33;;
5153;SDS011;2595;53.584;10.084;2022-12-18T03:23:17;7.90;;;7.30;;
5153;SDS011;2595;53.584;10.084;2022-12-18T03:25:46;7.80;;;7.10;;
5153;SDS011;2595;53.584;10.084;2022-12-18T03:28:16;8.23;;;7.63;;
5153;SDS011;2595;53.584;10.084;2022-12-18T03:30:45;11.87;;;7.53;;
5153;SDS011;2595;53.584;10.084;2022-12-18T03:33:23;8.20;;;7.60;;
5153;SDS011;2595;53.584;10.084;2022-12-18T03:35:52;11.50;;;7.70;;
5153;SDS011;2595;53.584;10.084;2022-12-18T03:38:18;9.13;;;8.13;;
5153;SDS011;2595;53.584;10.084;2022-12-18T03:43:56;9.20;;;6.83;;
5153;SDS011;2595;53.584;10.084;2022-12-18T03:49:44;7.97;;;7.37;;
5153;SDS011;2595;53.584;10.084;2022-12-18T03:52:31;8.50;;;7.33;;
5153;SDS011;2595;53.584;10.084;2022-12-18T03:55:21;7.50;;;6.80;;
5153;SDS011;2595;53.584;10.084;2022-12-18T03:57:49;8.20;;;7.60;;
5153;SDS011;2595;53.584;10.084;2022-12-18T04:00:17;7.30;;;6.87;;
5153;SDS011;2595;53.584;10.084;2022-12-18T04:02:46;6.73;;;6.13;;
5153;SDS011;2595;53.584;10.084;2022-12-18T04:05:17;7.10;;;6.40;;
5153;SDS011;2595;53.584;10.084;2022-12-18T04:07:45;11.97;;;6.97;;
5153;SDS011;2595;53.584;10.084;2022-12-18T04:10:13;6.57;;;5.97;;
5153;SDS011;2595;53.584;10.084;2022-12-18T04:12:41;8.70;;;7.73;;
5153;SDS011;2595;53.584;10.084;2022-12-18T04:15:07;7.37;;;6.73;;
5153;SDS011;2595;53.584;10.084;2022-12-18T04:17:33;6.70;;;6.10;;
5153;SDS011;2595;53.584;10.084;2022-12-18T04:19:58;7.80;;;7.23;;
5153;SDS011;2595;53.584;10.084;2022-12-18T04:22:24;8.10;;;7.50;;
5153;SDS011;2595;53.584;10.084;2022-12-18T04:24:49;10.10;;;7.30;;
5153;SDS011;2595;53.584;10.084;2022-12-18T04:27:15;11.47;;;6.80;;
5153;SDS011;2595;53.584;10.084;2022-12-18T04:29:41;6.97;;;6.50;;
5153;SDS011;2595;53.584;10.084;2022-12-18T04:32:07;7.07;;;6.53;;
5153;SDS011;2595;53.584;10.084;2022-12-18T04:34:33;6.93;;;6.53;;
5153;SDS011;2595;53.584;10.084;2022-12-18T04:36:58;7.13;;;6.60;;
5153;SDS011;2595;53.584;10.084;2022-12-18T04:39:24;7.87;;;7.07;;
5153;SDS011;2595;53.584;10.084;2022-12-18T04:41:50;6.57;;;6.07;;
5153;SDS011;2595;53.584;10.084;2022-12-18T04:44:15;7.80;;;6.90;;
5153;SDS011;2595;53.584;10.084;2022-12-18T04:46:41;6.93;;;6.33;;
5153;SDS011;2595;53.584;10.084;2022-12-18T04:49:06;7.53;;;6.93;;
5153;SDS011;2595;53.584;10.084;2022-12-18T04:51:32;7.33;;;6.73;;
5153;SDS011;2595;53.584;10.084;2022-12-18T04:53:58;6.80;;;6.50;;
5153;SDS011;2595;53.584;10.084;2022-12-18T04:56:23;7.20;;;6.50;;
5153;SDS011;2595;53.584;10.084;2022-12-18T04:58:49;8.10;;;7.33;;
5153;SDS011;2595;53.584;10.084;2022-12-18T05:01:15;7.30;;;6.80;;
5153;SDS011;2595;53.584;10.084;2022-12-18T05:03:42;7.00;;;6.57;;
5153;SDS011;2595;53.584;10.084;2022-12-18T05:06:07;7.03;;;6.53;;
5153;SDS011;2595;53.584;10.084;2022-12-18T05:08:33;7.47;;;6.87;;
5153;SDS011;2595;53.584;10.084;2022-12-18T05:11:00;10.03;;;6.77;;
5153;SDS011;2595;53.584;10.084;2022-12-18T05:13:27;7.40;;;6.93;;
5153;SDS011;2595;53.584;10.084;2022-12-18T05:15:53;7.30;;;6.70;;
5153;SDS011;2595;53.584;10.084;2022-12-18T05:18:20;7.67;;;6.67;;
5153;SDS011;2595;53.584;10.084;2022-12-18T05:20:46;6.73;;;6.30;;
5153;SDS011;2595;53.584;10.084;2022-12-18T05:23:11;8.20;;;7.37;;
5153;SDS011;2595;53.584;10.084;2022-12-18T05:25:37;7.70;;;7.10;;
5153;SDS011;2595;53.584;10.084;2022-12-18T05:28:02;8.50;;;7.57;;
5153;SDS011;2595;53.584;10.084;2022-12-18T05:30:28;10.10;;;6.70;;
5153;SDS011;2595;53.584;10.084;2022-12-18T05:32:54;7.97;;;7.37;;
5153;SDS011;2595;53.584;10.084;2022-12-18T05:35:19;8.73;;;6.90;;
5153;SDS011;2595;53.584;10.084;2022-12-18T05:37:45;8.53;;;7.83;;
5153;SDS011;2595;53.584;10.084;2022-12-18T05:40:11;8.10;;;7.40;;
5153;SDS011;2595;53.584;10.084;2022-12-18T05:42:37;9.07;;;8.27;;
5153;SDS011;2595;53.584;10.084;2022-12-18T05:45:02;7.93;;;7.20;;
5153;SDS011;2595;53.584;10.084;2022-12-18T05:47:28;7.83;;;6.90;;
5153;SDS011;2595;53.584;10.084;2022-12-18T05:49:54;7.57;;;6.80;;
5153;SDS011;2595;53.584;10.084;2022-12-18T05:52:20;8.73;;;7.00;;
5153;SDS011;2595;53.584;10.084;2022-12-18T05:54:45;7.33;;;6.73;;
5153;SDS011;2595;53.584;10.084;2022-12-18T05:57:11;8.73;;;7.17;;
5153;SDS011;2595;53.584;10.084;2022-12-18T05:59:37;8.03;;;7.33;;
5153;SDS011;2595;53.584;10.084;2022-12-18T06:02:02;8.63;;;7.93;;
5153;SDS011;2595;53.584;10.084;2022-12-18T06:04:31;10.00;;;9.00;;
5153;SDS011;2595;53.584;10.084;2022-12-18T06:06:56;8.13;;;7.30;;
5153;SDS011;2595;53.584;10.084;2022-12-18T06:09:22;8.60;;;7.90;;
5153;SDS011;2595;53.584;10.084;2022-12-18T06:11:48;8.77;;;7.97;;
5153;SDS011;2595;53.584;10.084;2022-12-18T06:14:15;8.93;;;8.07;;
5153;SDS011;2595;53.584;10.084;2022-12-18T06:16:42;9.23;;;8.60;;
5153;SDS011;2595;53.584;10.084;2022-12-18T06:19:07;9.60;;;8.53;;
5153;SDS011;2595;53.584;10.084;2022-12-18T06:21:38;7.00;;;6.60;;
5153;SDS011;2595;53.584;10.084;2022-12-18T06:24:04;8.63;;;7.87;;
5153;SDS011;2595;53.584;10.084;2022-12-18T06:26:29;8.87;;;8.10;;
5153;SDS011;2595;53.584;10.084;2022-12-18T06:28:55;9.40;;;8.60;;
5153;SDS011;2595;53.584;10.084;2022-12-18T06:31:21;11.60;;;7.83;;
5153;SDS011;2595;53.584;10.084;2022-12-18T06:33:46;8.60;;;7.67;;
5153;SDS011;2595;53.584;10.084;2022-12-18T06:36:12;8.60;;;7.17;;
5153;SDS011;2595;53.584;10.084;2022-12-18T06:38:39;16.67;;;8.53;;
5153;SDS011;2595;53.584;10.084;2022-12-18T06:41:10;8.67;;;8.07;;
5153;SDS011;2595;53.584;10.084;2022-12-18T06:43:37;9.87;;;8.70;;
5153;SDS011;2595;53.584;10.084;2022-12-18T06:46:03;9.50;;;8.57;;
5153;SDS011;2595;53.584;10.084;2022-12-18T06:48:29;8.67;;;7.97;;
5153;SDS011;2595;53.584;10.084;2022-12-18T06:50:56;9.27;;;8.43;;
5153;SDS011;2595;53.584;10.084;2022-12-18T06:53:21;15.80;;;9.30;;
5153;SDS011;2595;53.584;10.084;2022-12-18T06:55:47;10.40;;;8.47;;
5153;SDS011;2595;53.584;10.084;2022-12-18T06:58:13;8.37;;;6.80;;
5153;SDS011;2595;53.584;10.084;2022-12-18T07:00:39;9.37;;;8.37;;
5153;SDS011;2595;53.584;10.084;2022-12-18T07:03:04;9.60;;;8.73;;
5153;SDS011;2595;53.584;10.084;2022-12-18T07:05:30;8.53;;;7.83;;
5153;SDS011;2595;53.584;10.084;2022-12-18T07:07:55;10.90;;;9.83;;
5153;SDS011;2595;53.584;10.084;2022-12-18T07:10:21;8.30;;;7.70;;
5153;SDS011;2595;53.584;10.084;2022-12-18T07:12:47;9.13;;;8.33;;
5153;SDS011;2595;53.584;10.084;2022-12-18T07:15:13;8.53;;;7.40;;
5153;SDS011;2595;53.584;10.084;2022-12-18T07:17:38;8.20;;;7.50;;
5153;SDS011;2595;53.584;10.084;2022-12-18T07:20:04;9.43;;;8.63;;
5153;SDS011;2595;53.584;10.084;2022-12-18T07:22:30;8.77;;;7.90;;
5153;SDS011;2595;53.584;10.084;2022-12-18T07:24:56;8.07;;;7.37;;
5153;SDS011;2595;53.584;10.084;2022-12-18T07:27:21;9.60;;;8.67;;
5153;SDS011;2595;53.584;10.084;2022-12-18T07:29:48;11.53;;;8.67;;
5153;SDS011;2595;53.584;10.084;2022-12-18T07:32:14;9.63;;;8.67;;
5153;SDS011;2595;53.584;10.084;2022-12-18T07:34:40;9.60;;;8.80;;
5153;SDS011;2595;53.584;10.084;2022-12-18T07:37:05;10.13;;;8.63;;
5153;SDS011;2595;53.584;10.084;2022-12-18T07:39:31;9.97;;;8.93;;
5153;SDS011;2595;53.584;10.084;2022-12-18T07:41:57;9.07;;;8.30;;
5153;SDS011;2595;53.584;10.084;2022-12-18T07:44:41;9.47;;;8.57;;
5153;SDS011;2595;53.584;10.084;2022-12-18T07:47:06;9.33;;;8.50;;
5153;SDS011;2595;53.584;10.084;2022-12-18T07:49:32;8.97;;;8.17;;
5153;SDS011;2595;53.584;10.084;2022-12-18T07:51:58;14.10;;;9.23;;
5153;SDS011;2595;53.584;10.084;2022-12-18T07:54:24;13.00;;;9.40;;
5153;SDS011;2595;53.584;10.084;2022-12-18T07:56:50;10.20;;;9.40;;
5153;SDS011;2595;53.584;10.084;2022-12-18T07:59:16;14.60;;;9.60;;
5153;SDS011;2595;53.584;10.084;2022-12-18T08:01:42;13.10;;;9.90;;
5153;SDS011;2595;53.584;10.084;2022-12-18T08:04:08;10.10;;;9.30;;
5153;SDS011;2595;53.584;10.084;2022-12-18T08:06:34;10.37;;;9.37;;
5153;SDS011;2595;53.584;10.084;2022-12-18T08:09:00;11.93;;;10.70;;
5153;SDS011;2595;53.584;10.084;2022-12-18T08:11:26;15.70;;;8.47;;
5153;SDS011;2595;53.584;10.084;2022-12-18T08:13:52;9.30;;;8.47;;
5153;SDS011;2595;53.584;10.084;2022-12-18T08:16:18;11.73;;;9.40;;
5153;SDS011;2595;53.584;10.084;2022-12-18T08:18:44;10.73;;;9.10;;
5153;SDS011;2595;53.584;10.084;2022-12-18T08:21:11;9.37;;;8.53;;
5153;SDS011;2595;53.584;10.084;2022-12-18T08:23:45;9.37;;;8.60;;
5153;SDS011;2595;53.584;10.084;2022-12-18T08:26:11;11.83;;;10.83;;
5153;SDS011;2595;53.584;10.084;2022-12-18T08:28:37;9.90;;;8.97;;
5153;SDS011;2595;53.584;10.084;2022-12-18T08:31:04;12.50;;;8.50;;
5153;SDS011;2595;53.584;10.084;2022-12-18T08:33:29;10.93;;;9.03;;
5153;SDS011;2595;53.584;10.084;2022-12-18T08:35:55;10.60;;;9.70;;
5153;SDS011;2595;53.584;10.084;2022-12-18T08:38:21;9.80;;;9.00;;
5153;SDS011;2595;53.584;10.084;2022-12-18T08:40:47;15.20;;;9.30;;
5153;SDS011;2595;53.584;10.084;2022-12-18T08:43:13;10.23;;;8.50;;
5153;SDS011;2595;53.584;10.084;2022-12-18T08:45:57;10.03;;;9.00;;
5153;SDS011;2595;53.584;10.084;2022-12-18T08:48:22;9.47;;;8.57;;
5153;SDS011;2595;53.584;10.084;2022-12-18T08:50:55;8.73;;;7.50;;
5153;SDS011;2595;53.584;10.084;2022-12-18T08:53:25;12.30;;;9.83;;
5153;SDS011;2595;53.584;10.084;2022-12-18T08:55:51;11.30;;;9.20;;
5153;SDS011;2595;53.584;10.084;2022-12-18T08:58:17;13.93;;;9.60;;
5153;SDS011;2595;53.584;10.084;2022-12-18T09:00:43;10.23;;;9.30;;
5153;SDS011;2595;53.584;10.084;2022-12-18T09:03:15;13.73;;;8.93;;
5153;SDS011;2595;53.584;10.084;2022-12-18T09:05:42;14.13;;;9.63;;
5153;SDS011;2595;53.584;10.084;2022-12-18T09:08:08;9.93;;;9.00;;
5153;SDS011;2595;53.584;10.084;2022-12-18T09:10:40;9.67;;;8.37;;
5153;SDS011;2595;53.584;10.084;2022-12-18T09:13:10;8.87;;;8.00;;
5153;SDS011;2595;53.584;10.084;2022-12-18T09:15:43;9.93;;;7.90;;
5153;SDS011;2595;53.584;10.084;2022-12-18T09:18:19;10.97;;;9.03;;
5153;SDS011;2595;53.584;10.084;2022-12-18T09:20:46;11.53;;;8.77;;
5153;SDS011;2595;53.584;10.084;2022-12-18T09:23:12;18.97;;;10.93;;
5153;SDS011;2595;53.584;10.084;2022-12-18T09:25:37;11.93;;;9.70;;
5153;SDS011;2595;53.584;10.084;2022-12-18T09:28:09;18.67;;;10.63;;
5153;SDS011;2595;53.584;10.084;2022-12-18T09:30:39;10.00;;;7.90;;
5153;SDS011;2595;53.584;10.084;2022-12-18T09:33:06;9.70;;;8.70;;
5153;SDS011;2595;53.584;10.084;2022-12-18T09:35:32;9.90;;;8.93;;
5153;SDS011;2595;53.584;10.084;2022-12-18T09:38:00;10.37;;;9.33;;
5153;SDS011;2595;53.584;10.084;2022-12-18T09:40:26;11.50;;;10.40;;
5153;SDS011;2595;53.584;10.084;2022-12-18T09:42:58;9.77;;;8.80;;
5153;SDS011;2595;53.584;10.084;2022-12-18T09:45:29;11.97;;;9.73;;
5153;SDS011;2595;53.584;10.084;2022-12-18T09:48:03;24.23;;;13.97;;
5153;SDS011;2595;53.584;10.084;2022-12-18T09:50:33;13.10;;;9.17;;
5153;SDS011;2595;53.584;10.084;2022-12-18T09:53:03;14.47;;;9.80;;
5153;SDS011;2595;53.584;10.084;2022-12-18T09:55:36;11.43;;;9.00;;
5153;SDS011;2595;53.584;10.084;2022-12-18T10:00:36;22.57;;;15.43;;
5153;SDS011;2595;53.584;10.084;2022-12-18T10:03:09;15.33;;;12.07;;
5153;SDS011;2595;53.584;10.084;2022-12-18T10:08:17;11.70;;;8.50;;
5153;SDS011;2595;53.584;10.084;2022-12-18T10:10:48;12.97;;;9.73;;
5153;SDS011;2595;53.584;10.084;2022-12-18T10:18:54;11.57;;;8.70;;
5153;SDS011;2595;53.584;10.084;2022-12-18T10:21:32;11.27;;;9.70;;
5153;SDS011;2595;53.584;10.084;2022-12-18T10:26:55;11.80;;;10.70;;
5153;SDS011;2595;53.584;10.084;2022-12-18T10:29:33;9.50;;;8.90;;
5153;SDS011;2595;53.584;10.084;2022-12-18T10:31:59;9.80;;;8.90;;
5153;SDS011;2595;53.584;10.084;2022-12-18T10:34:24;8.03;;;7.57;;
5153;SDS011;2595;53.584;10.084;2022-12-18T10:36:50;11.13;;;9.37;;
5153;SDS011;2595;53.584;10.084;2022-12-18T10:41:41;11.03;;;9.30;;
5153;SDS011;2595;53.584;10.084;2022-12-18T10:46:49;11.40;;;9.00;;
5153;SDS011;2595;53.584;10.084;2022-12-18T10:49:28;12.23;;;8.50;;
5153;SDS011;2595;53.584;10.084;2022-12-18T10:52:06;9.77;;;8.87;;
5153;SDS011;2595;53.584;10.084;2022-12-18T10:54:51;8.23;;;7.43;;
5153;SDS011;2595;53.584;10.084;2022-12-18T10:59:52;12.87;;;10.10;;
5153;SDS011;2595;53.584;10.084;2022-12-18T11:02:35;10.63;;;8.43;;
5153;SDS011;2595;53.584;10.084;2022-12-18T11:05:03;10.83;;;9.73;;
5153;SDS011;2595;53.584;10.084;2022-12-18T11:07:48;10.13;;;9.13;;
5153;SDS011;2595;53.584;10.084;2022-12-18T11:10:16;10.17;;;9.27;;
5153;SDS011;2595;53.584;10.084;2022-12-18T11:12:42;11.20;;;9.47;;
5153;SDS011;2595;53.584;10.084;2022-12-18T11:15:41;15.30;;;9.83;;
5153;SDS011;2595;53.584;10.084;2022-12-18T11:18:00;12.73;;;9.77;;
5153;SDS011;2595;53.584;10.084;2022-12-18T11:20:32;9.20;;;8.60;;
5153;SDS011;2595;53.584;10.084;2022-12-18T11:23:01;8.83;;;7.70;;
5153;SDS011;2595;53.584;10.084;2022-12-18T11:25:29;12.13;;;9.17;;
5153;SDS011;2595;53.584;10.084;2022-12-18T11:28:00;16.00;;;9.23;;
5153;SDS011;2595;53.584;10.084;2022-12-18T11:30:27;16.07;;;9.70;;
5153;SDS011;2595;53.584;10.084;2022-12-18T11:35:50;13.03;;;10.53;;
5153;SDS011;2595;53.584;10.084;2022-12-18T11:38:37;12.10;;;10.30;;
5153;SDS011;2595;53.584;10.084;2022-12-18T11:41:07;11.10;;;9.60;;
5153;SDS011;2595;53.584;10.084;2022-12-18T11:44:15;13.00;;;9.50;;
5153;SDS011;2595;53.584;10.084;2022-12-18T11:46:50;13.83;;;10.37;;
5153;SDS011;2595;53.584;10.084;2022-12-18T11:49:22;10.70;;;9.27;;
5153;SDS011;2595;53.584;10.084;2022-12-18T11:51:57;9.50;;;8.60;;
5153;SDS011;2595;53.584;10.084;2022-12-18T11:54:27;11.03;;;9.90;;
5153;SDS011;2595;53.584;10.084;2022-12-18T11:57:03;10.50;;;9.43;;
5153;SDS011;2595;53.584;10.084;2022-12-18T11:59:39;12.17;;;8.97;;
5153;SDS011;2595;53.584;10.084;2022-12-18T12:02:17;9.70;;;8.63;;
5153;SDS011;2595;53.584;10.084;2022-12-18T12:07:38;16.50;;;9.73;;
5153;SDS011;2595;53.584;10.084;2022-12-18T12:13:01;12.47;;;8.90;;
5153;SDS011;2595;53.584;10.084;2022-12-18T12:26:11;8.67;;;7.93;;
5153;SDS011;2595;53.584;10.084;2022-12-18T12:33:59;9.33;;;7.80;;
5153;SDS011;2595;53.584;10.084;2022-12-18T12:39:23;11.80;;;10.13;;
5153;SDS011;2595;53.584;10.084;2022-12-18T12:41:55;11.90;;;10.77;;
5153;SDS011;2595;53.584;10.084;2022-12-18T12:44:42;11.30;;;9.47;;
5153;SDS011;2595;53.584;10.084;2022-12-18T12:47:20;13.87;;;9.60;;
5153;SDS011;2595;53.584;10.084;2022-12-18T12:49:50;11.90;;;9.43;;
5153;SDS011;2595;53.584;10.084;2022-12-18T12:55:22;11.80;;;10.60;;
5153;SDS011;2595;53.584;10.084;2022-12-18T13:00:24;13.30;;;10.17;;
5153;SDS011;2595;53.584;10.084;2022-12-18T13:03:11;13.50;;;10.50;;
5153;SDS011;2595;53.584;10.084;2022-12-18T13:05:58;10.40;;;9.37;;
5153;SDS011;2595;53.584;10.084;2022-12-18T13:08:29;14.00;;;8.90;;
5153;SDS011;2595;53.584;10.084;2022-12-18T13:10:57;13.07;;;9.23;;
5153;SDS011;2595;53.584;10.084;2022-12-18T13:16:19;15.27;;;8.93;;
5153;SDS011;2595;53.584;10.084;2022-12-18T13:18:50;21.47;;;12.27;;
5153;SDS011;2595;53.584;10.084;2022-12-18T13:21:21;11.17;;;9.83;;
5153;SDS011;2595;53.584;10.084;2022-12-18T13:23:51;17.67;;;9.00;;
5153;SDS011;2595;53.584;10.084;2022-12-18T13:31:13;13.47;;;9.87;;
5153;SDS011;2595;53.584;10.084;2022-12-18T13:34:24;15.33;;;10.13;;
5153;SDS011;2595;53.584;10.084;2022-12-18T13:36:51;14.40;;;9.93;;
5153;SDS011;2595;53.584;10.084;2022-12-18T13:41:44;12.70;;;9.07;;
5153;SDS011;2595;53.584;10.084;2022-12-18T13:44:12;11.83;;;9.07;;
5153;SDS011;2595;53.584;10.084;2022-12-18T13:46:47;12.30;;;9.47;;
5153;SDS011;2595;53.584;10.084;2022-12-18T13:49:25;14.50;;;10.20;;
5153;SDS011;2595;53.584;10.084;2022-12-18T13:51:53;11.77;;;9.97;;
5153;SDS011;2595;53.584;10.084;2022-12-18T13:57:02;13.07;;;9.27;;
5153;SDS011;2595;53.584;10.084;2022-12-18T13:59:33;13.60;;;10.27;;
5153;SDS011;2595;53.584;10.084;2022-12-18T14:02:13;11.77;;;8.87;;
5153;SDS011;2595;53.584;10.084;2022-12-18T14:04:45;11.47;;;9.87;;
5153;SDS011;2595;53.584;10.084;2022-12-18T14:07:14;15.93;;;11.00;;
5153;SDS011;2595;53.584;10.084;2022-12-18T14:09:43;14.10;;;9.63;;
5153;SDS011;2595;53.584;10.084;2022-12-18T14:12:21;14.43;;;9.17;;
5153;SDS011;2595;53.584;10.084;2022-12-18T14:17:59;14.37;;;10.60;;
5153;SDS011;2595;53.584;10.084;2022-12-18T14:20:27;13.53;;;9.90;;
5153;SDS011;2595;53.584;10.084;2022-12-18T14:22:54;16.67;;;9.60;;
5153;SDS011;2595;53.584;10.084;2022-12-18T14:25:22;12.00;;;9.27;;
5153;SDS011;2595;53.584;10.084;2022-12-18T14:27:51;13.80;;;10.60;;
5153;SDS011;2595;53.584;10.084;2022-12-18T14:30:36;13.80;;;8.83;;
5153;SDS011;2595;53.584;10.084;2022-12-18T14:33:11;13.60;;;10.53;;
5153;SDS011;2595;53.584;10.084;2022-12-18T14:38:32;18.20;;;12.10;;
5153;SDS011;2595;53.584;10.084;2022-12-18T14:41:05;18.80;;;11.37;;
5153;SDS011;2595;53.584;10.084;2022-12-18T14:43:36;13.90;;;10.20;;
5153;SDS011;2595;53.584;10.084;2022-12-18T14:46:25;23.50;;;12.23;;
5153;SDS011;2595;53.584;10.084;2022-12-18T14:48:56;23.03;;;10.50;;
5153;SDS011;2595;53.584;10.084;2022-12-18T14:51:25;17.43;;;11.80;;
5153;SDS011;2595;53.584;10.084;2022-12-18T14:56:24;15.43;;;10.77;;
5153;SDS011;2595;53.584;10.084;2022-12-18T14:58:58;15.70;;;10.63;;
5153;SDS011;2595;53.584;10.084;2022-12-18T15:01:36;18.03;;;11.63;;
5153;SDS011;2595;53.584;10.084;2022-12-18T15:04:05;16.70;;;11.30;;
5153;SDS011;2595;53.584;10.084;2022-12-18T15:07:02;17.70;;;11.70;;
5153;SDS011;2595;53.584;10.084;2022-12-18T15:09:29;13.03;;;9.70;;
5153;SDS011;2595;53.584;10.084;2022-12-18T15:11:59;15.10;;;10.30;;
5153;SDS011;2595;53.584;10.084;2022-12-18T15:17:21;15.97;;;10.73;;
5153;SDS011;2595;53.584;10.084;2022-12-18T15:19:48;19.23;;;11.63;;
5153;SDS011;2595;53.584;10.084;2022-12-18T15:22:27;24.47;;;13.10;;
5153;SDS011;2595;53.584;10.084;2022-12-18T15:24:55;13.13;;;10.17;;
5153;SDS011;2595;53.584;10.084;2022-12-18T15:27:27;15.40;;;11.17;;
5153;SDS011;2595;53.584;10.084;2022-12-18T15:30:26;20.30;;;12.03;;
5153;SDS011;2595;53.584;10.084;2022-12-18T15:32:46;17.73;;;10.67;;
5153;SDS011;2595;53.584;10.084;2022-12-18T15:35:15;24.43;;;12.40;;
5153;SDS011;2595;53.584;10.084;2022-12-18T15:37:44;13.37;;;10.50;;
5153;SDS011;2595;53.584;10.084;2022-12-18T15:40:28;16.33;;;10.80;;
5153;SDS011;2595;53.584;10.084;2022-12-18T15:42:54;16.80;;;10.00;;
5153;SDS011;2595;53.584;10.084;2022-12-18T15:45:39;20.57;;;11.50;;
5153;SDS011;2595;53.584;10.084;2022-12-18T15:48:19;14.43;;;10.07;;
5153;SDS011;2595;53.584;10.084;2022-12-18T15:50:46;13.30;;;10.10;;
5153;SDS011;2595;53.584;10.084;2022-12-18T15:53:13;19.63;;;10.33;;
5153;SDS011;2595;53.584;10.084;2022-12-18T15:55:38;11.90;;;9.33;;
5153;SDS011;2595;53.584;10.084;2022-12-18T15:58:23;15.13;;;11.20;;
5153;SDS011;2595;53.584;10.084;2022-12-18T16:00:48;11.63;;;10.40;;
5153;SDS011;2595;53.584;10.084;2022-12-18T16:03:14;16.93;;;12.83;;
5153;SDS011;2595;53.584;10.084;2022-12-18T16:05:39;23.73;;;13.20;;
5153;SDS011;2595;53.584;10.084;2022-12-18T16:08:05;18.43;;;11.70;;
5153;SDS011;2595;53.584;10.084;2022-12-18T16:10:30;27.17;;;14.63;;
5153;SDS011;2595;53.584;10.084;2022-12-18T16:12:56;30.07;;;15.23;;
5153;SDS011;2595;53.584;10.084;2022-12-18T16:15:22;21.47;;;14.03;;
5153;SDS011;2595;53.584;10.084;2022-12-18T16:17:47;19.90;;;12.50;;
5153;SDS011;2595;53.584;10.084;2022-12-18T16:20:17;30.00;;;16.53;;
5153;SDS011;2595;53.584;10.084;2022-12-18T16:22:45;29.77;;;14.50;;
5153;SDS011;2595;53.584;10.084;2022-12-18T16:25:30;35.13;;;17.03;;
5153;SDS011;2595;53.584;10.084;2022-12-18T16:27:56;29.63;;;15.10;;
5153;SDS011;2595;53.584;10.084;2022-12-18T16:30:22;25.47;;;13.37;;
5153;SDS011;2595;53.584;10.084;2022-12-18T16:32:52;41.80;;;20.30;;
5153;SDS011;2595;53.584;10.084;2022-12-18T16:35:18;30.13;;;16.20;;
5153;SDS011;2595;53.584;10.084;2022-12-18T16:37:44;36.23;;;18.40;;
5153;SDS011;2595;53.584;10.084;2022-12-18T16:40:10;37.53;;;17.80;;
5153;SDS011;2595;53.584;10.084;2022-12-18T16:42:38;27.33;;;15.60;;
5153;SDS011;2595;53.584;10.084;2022-12-18T16:45:06;32.63;;;15.87;;
5153;SDS011;2595;53.584;10.084;2022-12-18T16:47:33;26.60;;;15.77;;
5153;SDS011;2595;53.584;10.084;2022-12-18T16:49:59;17.47;;;12.40;;